createdAt,value
2018-09-23T00:00:48.877Z,87.74
2018-09-23T00:03:18.999Z,87.95
2018-09-23T00:05:48.691Z,87.92
2018-09-23T00:08:18.469Z,88.08
2018-09-23T00:10:48.246Z,87.77
2018-09-23T00:13:18.037Z,87.56
2018-09-23T00:15:47.804Z,87.79
2018-09-23T00:18:17.558Z,88.24
2018-09-23T00:20:47.477Z,88.22
2018-09-23T00:23:17.386Z,87.74
2018-09-23T00:25:47.221Z,88.19
2018-09-23T00:28:17.105Z,88.32
2018-09-23T00:30:46.851Z,88.52
2018-09-23T00:33:16.752Z,89.11
2018-09-23T00:35:46.416Z,89.36
2018-09-23T00:38:16.280Z,89.47
2018-09-23T00:40:46.161Z,89.52
2018-09-23T00:43:16.058Z,89.37
2018-09-23T00:45:45.724Z,89.49
2018-09-23T00:48:15.584Z,89.36
2018-09-23T00:50:45.323Z,89.49
2018-09-23T00:53:15.167Z,89.82
2018-09-23T00:55:44.892Z,90.23
2018-09-23T00:58:14.631Z,90.48
2018-09-23T01:00:44.419Z,90.33
2018-09-23T01:03:14.274Z,90.67
2018-09-23T01:05:44.053Z,90.64
2018-09-23T01:08:16.110Z,90.79
2018-09-23T01:10:45.861Z,90.33
2018-09-23T01:13:16.670Z,90.39
2018-09-23T01:15:46.427Z,90.47
2018-09-23T01:18:16.989Z,90.46
2018-09-23T01:20:47.207Z,90.52
2018-09-23T01:23:17.967Z,90.43
2018-09-23T01:25:47.815Z,90.50
2018-09-23T01:28:19.228Z,90.25
2018-09-23T01:30:49.188Z,90.39
2018-09-23T01:33:20.623Z,90.49
2018-09-23T01:35:50.470Z,90.15
2018-09-23T01:38:21.945Z,90.47
2018-09-23T01:40:51.793Z,90.32
2018-09-23T01:43:21.486Z,90.69
2018-09-23T01:45:51.852Z,90.61
2018-09-23T01:48:21.650Z,90.29
2018-09-23T01:50:51.550Z,90.28
2018-09-23T01:53:21.349Z,90.63
2018-09-23T01:55:51.304Z,90.07
2018-09-23T01:58:21.325Z,89.70
2018-09-23T02:00:51.258Z,89.87
2018-09-23T02:03:21.160Z,89.75
2018-09-23T02:05:50.999Z,89.68
2018-09-23T02:08:20.737Z,89.89
2018-09-23T02:10:50.485Z,89.52
2018-09-23T02:13:20.825Z,89.44
2018-09-23T02:15:50.901Z,89.48
2018-09-23T02:18:20.785Z,89.53
2018-09-23T02:20:51.266Z,89.40
2018-09-23T02:23:21.048Z,89.47
2018-09-23T02:25:51.766Z,89.93
2018-09-23T02:28:21.619Z,89.63
2018-09-23T02:30:51.437Z,89.91
2018-09-23T02:33:21.238Z,89.92
2018-09-23T02:35:51.252Z,89.70
2018-09-23T02:38:21.090Z,89.90
2018-09-23T02:40:50.919Z,89.92
2018-09-23T02:43:20.847Z,90.06
2018-09-23T02:45:51.380Z,89.99
2018-09-23T02:48:21.285Z,89.96
2018-09-23T02:50:51.088Z,90.02
2018-09-23T02:53:20.873Z,89.74
2018-09-23T02:55:50.688Z,89.68
2018-09-23T02:58:20.511Z,89.57
2018-09-23T03:00:50.474Z,89.85
2018-09-23T03:03:20.190Z,89.35
2018-09-23T03:05:50.125Z,89.61
2018-09-23T03:08:20.344Z,89.07
2018-09-23T03:10:50.834Z,88.78
2018-09-23T03:13:20.511Z,86.28
2018-09-23T03:15:50.642Z,86.45
2018-09-23T03:18:20.418Z,84.87
2018-09-23T03:20:50.420Z,84.88
2018-09-23T03:23:20.180Z,84.72
2018-09-23T03:25:49.957Z,84.46
2018-09-23T03:28:19.693Z,83.62
2018-09-23T03:30:49.499Z,83.91
2018-09-23T03:33:19.299Z,84.25
2018-09-23T03:35:49.412Z,84.69
2018-09-23T03:38:19.225Z,85.62
2018-09-23T03:40:51.383Z,86.40
2018-09-23T03:43:21.136Z,87.14
2018-09-23T03:45:50.976Z,87.16
2018-09-23T03:48:21.091Z,87.59
2018-09-23T03:50:51.097Z,87.64
2018-09-23T03:53:20.864Z,88.07
2018-09-23T03:55:51.214Z,88.33
2018-09-23T03:58:21.001Z,88.51
2018-09-23T04:00:50.819Z,88.46
2018-09-23T04:03:20.612Z,88.62
2018-09-23T04:05:50.452Z,88.74
2018-09-23T04:08:20.889Z,89.13
2018-09-23T04:10:50.824Z,88.91
2018-09-23T04:13:20.706Z,89.20
2018-09-23T04:15:50.359Z,89.38
2018-09-23T04:18:20.362Z,89.37
2018-09-23T04:20:50.300Z,89.61
2018-09-23T04:23:20.021Z,89.18
2018-09-23T04:25:49.739Z,88.93
2018-09-23T04:28:19.549Z,88.92
2018-09-23T04:30:49.747Z,89.14
2018-09-23T04:33:20.207Z,89.05
2018-09-23T04:35:51.385Z,88.92
2018-09-23T04:41:14.545Z,89.18
2018-09-23T04:43:55.558Z,89.00
2018-09-23T04:46:47.645Z,89.23
2018-09-23T05:02:31.318Z,89.14
2018-09-23T05:05:01.638Z,88.90
2018-09-23T05:07:31.796Z,89.56
2018-09-23T05:10:14.905Z,89.78
2018-09-23T05:19:02.858Z,90.03
2018-09-23T05:21:33.500Z,90.41
2018-09-23T06:10:04.284Z,85.89
2018-09-23T06:12:35.204Z,86.10
2018-09-23T06:15:05.863Z,85.07
2018-09-23T06:17:35.856Z,85.14
2018-09-23T06:20:06.643Z,85.63
2018-09-23T06:22:36.864Z,85.25
2018-09-23T06:25:07.429Z,84.18
2018-09-23T06:27:40.484Z,83.43
2018-09-23T06:30:17.421Z,83.36
2018-09-23T06:32:53.200Z,83.47
2018-09-23T06:35:29.618Z,81.55
2018-09-23T06:40:42.262Z,81.81
2018-09-23T06:43:12.597Z,81.53
2018-09-23T06:45:43.309Z,80.66
2018-09-23T06:48:13.666Z,82.00
2018-09-23T06:50:44.118Z,82.08
2018-09-23T06:53:14.240Z,81.53
2018-09-23T06:55:44.358Z,80.00
2018-09-23T06:58:15.727Z,81.00
2018-09-23T07:00:46.317Z,80.95
2018-09-23T07:03:16.904Z,80.84
2018-09-23T07:05:47.765Z,79.19
2018-09-23T07:11:21.463Z,79.94
2018-09-23T07:14:09.263Z,80.37
2018-09-23T07:16:39.711Z,80.09
2018-09-23T07:19:10.503Z,79.18
2018-09-23T07:30:54.619Z,78.25
2018-09-23T07:33:55.832Z,78.13
2018-09-23T07:36:38.683Z,78.08
2018-09-23T07:39:11.645Z,78.14
2018-09-23T07:41:58.723Z,76.75
2018-09-23T07:44:30.389Z,76.74
2018-09-23T07:47:01.433Z,76.72
2018-09-23T07:55:13.200Z,75.63
2018-09-23T07:57:43.365Z,75.55
2018-09-23T08:00:13.495Z,75.49
2018-09-23T08:02:43.876Z,75.71
2018-09-23T08:05:13.924Z,74.19
2018-09-23T08:07:45.447Z,73.12
2018-09-23T08:10:15.656Z,74.19
2018-09-23T08:12:46.584Z,72.01
2018-09-23T08:15:16.676Z,72.16
2018-09-23T08:17:47.078Z,70.76
2018-09-23T08:20:18.053Z,70.00
2018-09-23T08:22:48.511Z,69.46
2018-09-23T08:25:18.845Z,68.94
2018-09-23T08:27:48.897Z,69.07
2018-09-23T08:30:19.156Z,67.55
2018-09-23T08:32:50.127Z,67.14
2018-09-23T08:35:20.357Z,67.48
2018-09-23T08:37:50.737Z,66.24
2018-09-23T08:40:20.979Z,65.59
2018-09-23T08:42:51.338Z,66.46
2018-09-23T08:45:22.181Z,65.43
2018-09-23T08:47:53.049Z,63.70
2018-09-23T08:50:26.597Z,64.65
2018-09-23T08:52:57.455Z,64.03
2018-09-23T08:55:27.905Z,65.09
2018-09-23T08:58:04.975Z,64.84
2018-09-23T09:00:36.986Z,64.96
2018-09-23T09:03:10.364Z,66.23
2018-09-23T09:05:48.216Z,66.25
2018-09-23T09:08:18.743Z,64.76
2018-09-23T09:10:51.244Z,62.76
2018-09-23T09:13:21.981Z,61.44
2018-09-23T09:15:54.437Z,63.56
2018-09-23T09:18:28.421Z,59.03
2018-09-23T09:21:01.096Z,62.50
2018-09-23T09:23:31.560Z,59.81
2018-09-23T09:26:03.056Z,58.38
2018-09-23T09:28:37.676Z,56.45
2018-09-23T09:31:08.985Z,59.66
2018-09-23T09:33:41.232Z,58.13
2018-09-23T09:36:11.904Z,59.30
2018-09-23T09:38:48.206Z,60.93
2018-09-23T09:41:21.807Z,59.28
2018-09-23T09:43:52.418Z,58.62
2018-09-23T09:46:27.263Z,57.41
2018-09-23T09:49:03.534Z,61.20
2018-09-23T09:51:35.024Z,59.28
2018-09-23T09:56:50.888Z,58.92
2018-09-23T09:59:23.605Z,61.02
2018-09-23T10:01:53.884Z,59.34
2018-09-23T10:04:24.167Z,56.96
2018-09-23T10:06:54.583Z,62.24
2018-09-23T10:09:24.993Z,61.46
2018-09-23T10:11:55.274Z,62.62
2018-09-23T10:14:26.328Z,59.43
2018-09-23T10:30:45.296Z,58.78
2018-09-23T10:33:16.129Z,58.05
2018-09-23T10:35:46.264Z,60.13
2018-09-23T10:38:17.826Z,58.01
2018-09-23T10:40:50.444Z,61.19
2018-09-23T10:43:22.011Z,63.67
2018-09-23T10:45:53.598Z,58.43
2018-09-23T10:48:24.151Z,60.52
2018-09-23T10:50:54.391Z,58.97
2018-09-23T10:53:24.931Z,61.08
2018-09-23T10:55:55.240Z,57.67
2018-09-23T10:58:26.178Z,58.63
2018-09-23T11:00:57.407Z,58.28
2018-09-23T11:03:27.700Z,59.14
2018-09-23T11:05:59.302Z,59.26
2018-09-23T11:08:30.253Z,59.03
2018-09-23T11:11:00.506Z,59.40
2018-09-23T11:13:31.145Z,62.06
2018-09-23T11:16:05.200Z,59.83
2018-09-23T11:18:35.833Z,58.80
2018-09-23T11:21:06.232Z,58.54
2018-09-23T11:23:36.817Z,57.92
2018-09-23T11:26:07.111Z,57.20
2018-09-23T11:28:37.517Z,59.73
2018-09-23T11:31:07.900Z,56.83
2018-09-23T11:33:38.184Z,59.51
2018-09-23T11:36:08.435Z,56.97
2018-09-23T11:38:39.556Z,58.27
2018-09-23T11:41:09.874Z,57.60
2018-09-23T11:43:41.222Z,56.97
2018-09-23T11:46:12.105Z,60.14
2018-09-23T11:48:44.634Z,61.26
2018-09-23T11:51:15.454Z,59.69
2018-09-23T11:53:46.063Z,60.92
2018-09-23T11:56:19.835Z,60.05
2018-09-23T11:58:58.075Z,62.28
2018-09-23T12:01:30.669Z,60.95
2018-09-23T12:04:00.682Z,59.07
2018-09-23T12:06:31.955Z,60.63
2018-09-23T12:09:01.971Z,59.96
2018-09-23T12:11:33.145Z,59.90
2018-09-23T12:14:03.097Z,58.75
2018-09-23T12:16:36.680Z,60.40
2018-09-23T12:19:06.641Z,59.37
2018-09-23T12:21:37.021Z,59.43
2018-09-23T12:24:06.924Z,59.32
2018-09-23T12:26:38.049Z,58.62
2018-09-23T12:29:08.060Z,58.41
2018-09-23T12:31:39.366Z,59.99
2018-09-23T12:34:09.394Z,58.96
2018-09-23T12:36:40.821Z,57.78
2018-09-23T12:39:12.661Z,61.61
2018-09-23T12:41:43.563Z,62.58
2018-09-23T12:44:13.334Z,58.97
2018-09-23T12:46:45.940Z,60.93
2018-09-23T12:49:15.725Z,61.03
2018-09-23T12:51:46.717Z,61.85
2018-09-23T12:54:17.160Z,60.74
2018-09-23T12:56:47.979Z,62.23
2018-09-23T12:59:18.263Z,59.15
2018-09-23T13:01:49.025Z,59.53
2018-09-23T13:04:19.033Z,58.60
2018-09-23T13:06:49.268Z,59.22
2018-09-23T13:09:26.450Z,59.78
2018-09-23T13:11:56.474Z,57.73
2018-09-23T13:14:26.424Z,57.92
2018-09-23T13:16:56.497Z,59.21
2018-09-23T13:19:26.380Z,60.57
2018-09-23T13:21:57.378Z,60.10
2018-09-23T13:24:27.358Z,62.52
2018-09-23T13:26:58.449Z,61.23
2018-09-23T13:29:28.603Z,64.25
2018-09-23T13:32:00.239Z,60.27
2018-09-23T13:34:30.095Z,59.48
2018-09-23T13:37:01.509Z,59.91
2018-09-23T13:39:31.369Z,60.27
2018-09-23T13:42:03.810Z,59.49
2018-09-23T13:44:33.627Z,58.87
2018-09-23T13:47:04.415Z,62.93
2018-09-23T13:49:34.350Z,61.13
2018-09-23T13:52:04.838Z,63.54
2018-09-23T13:54:34.842Z,60.13
2018-09-23T13:57:06.245Z,59.33
2018-09-23T13:59:36.287Z,59.45
2018-09-23T14:02:07.556Z,62.87
2018-09-23T14:04:37.294Z,61.27
2018-09-23T14:07:07.505Z,60.07
2018-09-23T14:09:37.452Z,57.83
2018-09-23T14:12:07.035Z,58.50
2018-09-23T14:14:37.174Z,59.49
2018-09-23T14:17:07.121Z,58.58
2018-09-23T14:19:37.458Z,59.60
2018-09-23T14:22:07.309Z,59.01
2018-09-23T14:24:37.534Z,61.17
2018-09-23T14:27:07.382Z,59.63
2018-09-23T14:29:37.353Z,59.33
2018-09-23T14:32:07.234Z,58.34
2018-09-23T14:34:37.312Z,58.50
2018-09-23T14:37:07.402Z,60.01
2018-09-23T14:39:37.520Z,60.46
2018-09-23T14:42:07.563Z,60.36
2018-09-23T14:44:37.769Z,60.37
2018-09-23T14:47:07.759Z,59.57
2018-09-23T14:49:37.679Z,58.68
2018-09-23T14:52:07.553Z,59.81
2018-09-23T14:54:37.573Z,60.29
2018-09-23T14:57:07.416Z,59.54
2018-09-23T14:59:37.386Z,59.43
2018-09-23T15:02:07.259Z,59.13
2018-09-23T15:04:37.198Z,57.85
2018-09-23T15:07:07.176Z,58.70
2018-09-23T15:09:37.452Z,57.07
2018-09-23T15:12:07.562Z,59.35
2018-09-23T15:14:37.429Z,56.13
2018-09-23T15:17:07.405Z,56.97
2018-09-23T15:19:37.416Z,58.23
2018-09-23T15:22:07.550Z,58.09
2018-09-23T15:24:37.645Z,56.92
2018-09-23T15:27:07.608Z,57.51
2018-09-23T15:29:37.507Z,57.46
2018-09-23T15:32:07.723Z,57.42
2018-09-23T15:34:37.841Z,59.07
2018-09-23T15:37:07.782Z,56.47
2018-09-23T15:39:37.651Z,57.93
2018-09-23T15:42:07.464Z,56.49
2018-09-23T15:44:37.762Z,56.54
2018-09-23T15:47:08.239Z,56.19
2018-09-23T15:49:38.955Z,56.94
2018-09-23T15:52:08.973Z,57.24
2018-09-23T15:54:38.927Z,57.92
2018-09-23T15:57:08.975Z,58.70
2018-09-23T15:59:38.856Z,60.46
2018-09-23T16:02:08.933Z,61.04
2018-09-23T16:04:38.804Z,60.33
2018-09-23T16:07:08.812Z,61.70
2018-09-23T16:09:38.763Z,61.95
2018-09-23T16:12:08.645Z,63.67
2018-09-23T16:14:38.688Z,63.17
2018-09-23T16:17:08.669Z,65.01
2018-09-23T16:19:38.524Z,64.75
2018-09-23T16:22:08.207Z,64.78
2018-09-23T16:24:38.179Z,66.80
2018-09-23T16:27:08.039Z,66.72
2018-09-23T16:29:38.008Z,67.04
2018-09-23T16:32:07.858Z,67.90
2018-09-23T16:34:37.927Z,67.80
2018-09-23T16:37:07.778Z,69.66
2018-09-23T16:39:37.846Z,71.60
2018-09-23T16:42:07.689Z,72.51
2018-09-23T16:44:37.812Z,73.32
2018-09-23T16:47:07.798Z,73.54
2018-09-23T16:49:37.608Z,74.16
2018-09-23T16:52:07.537Z,74.25
2018-09-23T16:54:37.718Z,74.48
2018-09-23T16:57:07.563Z,75.78
2018-09-23T16:59:37.619Z,76.51
2018-09-23T17:02:07.543Z,76.71
2018-09-23T17:04:37.364Z,77.24
2018-09-23T17:07:07.462Z,77.39
2018-09-23T17:09:37.495Z,78.36
2018-09-23T17:12:07.265Z,78.88
2018-09-23T17:14:37.054Z,79.86
2018-09-23T17:17:07.187Z,80.22
2018-09-23T17:19:38.039Z,81.18
2018-09-23T17:22:09.053Z,80.84
2018-09-23T17:24:39.576Z,82.26
2018-09-23T17:27:11.906Z,82.16
2018-09-23T17:29:48.673Z,83.23
2018-09-23T17:32:22.125Z,83.06
2018-09-23T17:34:52.465Z,83.93
2018-09-23T17:49:17.934Z,85.94
2018-09-23T17:51:47.926Z,87.48
2018-09-23T17:54:18.605Z,86.26
2018-09-23T17:56:49.553Z,87.24
2018-09-23T17:59:19.976Z,86.59
2018-09-23T18:01:50.703Z,86.73
2018-09-23T18:04:21.815Z,86.91
2018-09-23T18:06:55.450Z,87.27
2018-09-23T18:09:40.975Z,87.36
2018-09-23T18:12:35.153Z,86.95
2018-09-23T18:15:13.134Z,88.10
2018-09-23T18:17:43.092Z,87.64
2018-09-23T18:20:13.492Z,87.67
2018-09-23T18:22:47.724Z,88.24
2018-09-23T18:25:17.924Z,88.15
2018-09-23T18:27:48.265Z,88.60
2018-09-23T18:30:18.695Z,88.67
2018-09-23T18:33:11.646Z,89.31
2018-09-23T18:35:42.227Z,90.04
2018-09-23T18:41:05.143Z,89.48
2018-09-23T18:43:35.218Z,89.71
2018-09-23T18:46:06.606Z,88.98
2018-09-23T18:48:37.220Z,89.42
2018-09-23T18:51:07.330Z,89.71
2018-09-23T18:53:38.366Z,89.49
2018-09-23T18:56:08.968Z,89.87
2018-09-23T19:14:36.142Z,89.41
2018-09-23T19:17:06.578Z,89.40
2018-09-23T19:19:41.657Z,90.47
2018-09-23T19:22:18.481Z,90.18
2018-09-23T19:24:49.202Z,90.67
2018-09-23T19:27:19.427Z,90.43
2018-09-23T19:29:49.626Z,90.60
2018-09-23T19:32:24.182Z,90.94
2018-09-23T19:34:54.419Z,90.97
2018-09-23T19:37:39.827Z,91.00
2018-09-23T19:40:10.156Z,90.77
2018-09-23T19:42:48.265Z,90.53
2018-09-23T19:45:18.660Z,90.75
2018-09-23T19:47:48.702Z,90.90
2018-09-23T19:50:18.788Z,91.25
2018-09-23T19:52:54.034Z,91.61
2018-09-23T19:55:24.688Z,91.62
2018-09-23T20:00:45.306Z,91.83
2018-09-23T20:03:15.106Z,91.62
2018-09-23T20:05:45.017Z,92.43
2018-09-23T20:08:14.968Z,92.10
2018-09-23T20:10:45.866Z,92.31
2018-09-23T20:13:15.872Z,91.89
2018-09-23T20:15:46.060Z,92.20
2018-09-23T20:18:15.900Z,92.46
2018-09-23T20:20:45.837Z,92.78
2018-09-23T20:23:15.701Z,92.44
2018-09-23T20:25:45.580Z,92.97
2018-09-23T20:28:15.604Z,92.48
2018-09-23T20:30:45.856Z,93.77
2018-09-23T20:33:15.671Z,93.15
2018-09-23T20:35:45.627Z,93.50
2018-09-23T20:38:15.296Z,93.44
2018-09-23T20:40:45.323Z,93.35
2018-09-23T20:43:15.083Z,92.60
2018-09-23T20:45:45.382Z,92.47
2018-09-23T20:48:15.302Z,90.29
2018-09-23T20:50:45.615Z,88.33
2018-09-23T20:53:16.211Z,87.26
2018-09-23T20:55:46.579Z,85.86
2018-09-23T20:58:16.542Z,86.10
2018-09-23T21:00:46.597Z,85.38
2018-09-23T21:03:16.463Z,84.73
2018-09-23T21:05:46.479Z,83.47
2018-09-23T21:08:16.272Z,82.68
2018-09-23T21:10:46.341Z,82.45
2018-09-23T21:13:16.365Z,81.95
2018-09-23T21:15:46.330Z,82.06
2018-09-23T21:18:16.228Z,81.26
2018-09-23T21:20:46.269Z,80.35
2018-09-23T21:23:16.062Z,79.98
2018-09-23T21:25:46.097Z,79.07
2018-09-23T21:28:16.494Z,78.36
2018-09-23T21:30:46.308Z,79.03
2018-09-23T21:33:16.153Z,77.85
2018-09-23T21:35:46.118Z,77.47
2018-09-23T21:38:16.023Z,77.54
2018-09-23T21:40:46.064Z,77.27
2018-09-23T21:43:16.037Z,78.03
2018-09-23T21:45:45.997Z,77.72
2018-09-23T21:48:15.883Z,79.10
2018-09-23T21:50:46.036Z,78.85
2018-09-23T21:53:15.924Z,79.98
2018-09-23T21:55:45.837Z,78.04
2018-09-23T21:58:16.494Z,77.78
2018-09-23T22:00:47.019Z,76.79
2018-09-23T22:03:16.760Z,76.14
2018-09-23T22:05:46.580Z,74.23
2018-09-23T22:08:16.305Z,73.46
2018-09-23T22:10:46.118Z,72.90
2018-09-23T22:13:16.048Z,71.32
2018-09-23T22:15:45.898Z,71.01
2018-09-23T22:18:15.688Z,70.18
2018-09-23T22:20:45.668Z,70.84
2018-09-23T22:23:15.549Z,71.05
2018-09-23T22:25:45.500Z,70.53
2018-09-23T22:28:15.297Z,70.42
2018-09-23T22:30:45.216Z,70.63
2018-09-23T22:33:15.343Z,70.86
2018-09-23T22:35:45.181Z,70.39
2018-09-23T22:38:14.959Z,71.46
2018-09-23T22:40:44.781Z,71.77
2018-09-23T22:43:14.736Z,71.53
2018-09-23T22:45:44.750Z,71.03
2018-09-23T22:48:14.585Z,71.53
2018-09-23T22:50:44.810Z,71.71
2018-09-23T22:53:14.567Z,72.64
2018-09-23T22:55:44.515Z,72.85
2018-09-23T22:58:14.322Z,72.21
2018-09-23T23:00:44.095Z,71.82
2018-09-23T23:03:14.992Z,72.69
2018-09-23T23:05:44.904Z,73.81
2018-09-23T23:08:14.938Z,74.81
2018-09-23T23:10:45.024Z,74.62
2018-09-23T23:13:15.091Z,75.63
2018-09-23T23:15:45.012Z,72.62
2018-09-23T23:18:14.910Z,72.62
2018-09-23T23:20:46.042Z,72.07
2018-09-23T23:23:16.236Z,72.69
2018-09-23T23:25:47.229Z,73.35
2018-09-23T23:28:17.128Z,73.35
2018-09-23T23:30:47.918Z,73.67
2018-09-23T23:33:17.614Z,73.84
2018-09-23T23:35:48.682Z,74.29
2018-09-23T23:38:18.472Z,74.80
2018-09-23T23:40:49.341Z,75.43
2018-09-23T23:43:19.418Z,75.29
2018-09-23T23:45:50.440Z,76.09
2018-09-23T23:48:20.372Z,76.71
2018-09-23T23:50:51.835Z,76.75
2018-09-23T23:53:21.814Z,77.27
2018-09-23T23:55:53.771Z,78.16
2018-09-23T23:58:23.717Z,78.56
